sensor_id;sensor_type;location;lat;lon;timestamp;P1;durP1;ratioP1;P2;durP2;ratioP2
8594;SDS011;4335;48.860;9.198;2022-08-24T00:01:38;5.00;;;4.33;;
8594;SDS011;4335;48.860;9.198;2022-08-24T00:04:07;5.50;;;4.20;;
8594;SDS011;4335;48.860;9.198;2022-08-24T00:06:34;5.27;;;3.43;;
8594;SDS011;4335;48.860;9.198;2022-08-24T00:09:03;6.23;;;3.87;;
8594;SDS011;4335;48.860;9.198;2022-08-24T00:11:35;6.87;;;4.20;;
8594;SDS011;4335;48.860;9.198;2022-08-24T00:14:02;4.70;;;3.53;;
8594;SDS011;4335;48.860;9.198;2022-08-24T00:16:32;5.13;;;4.00;;
8594;SDS011;4335;48.860;9.198;2022-08-24T00:18:59;4.57;;;3.40;;
8594;SDS011;4335;48.860;9.198;2022-08-24T00:21:26;4.40;;;3.63;;
8594;SDS011;4335;48.860;9.198;2022-08-24T00:23:53;4.70;;;4.10;;
8594;SDS011;4335;48.860;9.198;2022-08-24T00:26:20;5.37;;;3.80;;
8594;SDS011;4335;48.860;9.198;2022-08-24T00:28:47;3.77;;;3.47;;
8594;SDS011;4335;48.860;9.198;2022-08-24T00:31:14;6.30;;;3.93;;
8594;SDS011;4335;48.860;9.198;2022-08-24T00:33:42;5.77;;;4.00;;
8594;SDS011;4335;48.860;9.198;2022-08-24T00:36:10;5.00;;;3.77;;
8594;SDS011;4335;48.860;9.198;2022-08-24T00:38:45;5.37;;;4.13;;
8594;SDS011;4335;48.860;9.198;2022-08-24T00:41:15;6.77;;;4.30;;
8594;SDS011;4335;48.860;9.198;2022-08-24T00:43:50;5.10;;;4.57;;
8594;SDS011;4335;48.860;9.198;2022-08-24T00:46:19;7.07;;;4.90;;
8594;SDS011;4335;48.860;9.198;2022-08-24T00:48:56;11.97;;;4.97;;
8594;SDS011;4335;48.860;9.198;2022-08-24T00:51:28;5.30;;;4.80;;
8594;SDS011;4335;48.860;9.198;2022-08-24T00:54:01;8.37;;;5.17;;
8594;SDS011;4335;48.860;9.198;2022-08-24T00:56:31;5.53;;;4.33;;
8594;SDS011;4335;48.860;9.198;2022-08-24T00:59:03;6.53;;;4.83;;
8594;SDS011;4335;48.860;9.198;2022-08-24T01:01:35;6.73;;;4.13;;
8594;SDS011;4335;48.860;9.198;2022-08-24T01:04:03;7.17;;;5.40;;
8594;SDS011;4335;48.860;9.198;2022-08-24T01:06:32;6.13;;;3.97;;
8594;SDS011;4335;48.860;9.198;2022-08-24T01:08:58;5.63;;;4.50;;
8594;SDS011;4335;48.860;9.198;2022-08-24T01:11:25;5.77;;;5.13;;
8594;SDS011;4335;48.860;9.198;2022-08-24T01:13:55;6.27;;;5.10;;
8594;SDS011;4335;48.860;9.198;2022-08-24T01:16:23;8.00;;;6.13;;
8594;SDS011;4335;48.860;9.198;2022-08-24T01:19:10;5.37;;;4.70;;
8594;SDS011;4335;48.860;9.198;2022-08-24T01:21:45;4.27;;;3.87;;
8594;SDS011;4335;48.860;9.198;2022-08-24T01:24:19;4.87;;;4.10;;
8594;SDS011;4335;48.860;9.198;2022-08-24T01:26:47;6.27;;;3.53;;
8594;SDS011;4335;48.860;9.198;2022-08-24T01:29:16;4.67;;;3.47;;
8594;SDS011;4335;48.860;9.198;2022-08-24T01:31:46;4.70;;;3.60;;
8594;SDS011;4335;48.860;9.198;2022-08-24T01:34:13;5.10;;;3.43;;
8594;SDS011;4335;48.860;9.198;2022-08-24T01:36:46;7.07;;;4.37;;
8594;SDS011;4335;48.860;9.198;2022-08-24T01:39:17;3.70;;;3.40;;
8594;SDS011;4335;48.860;9.198;2022-08-24T01:41:49;4.47;;;3.70;;
8594;SDS011;4335;48.860;9.198;2022-08-24T01:44:17;3.67;;;3.37;;
8594;SDS011;4335;48.860;9.198;2022-08-24T01:46:45;3.47;;;3.17;;
8594;SDS011;4335;48.860;9.198;2022-08-24T01:49:13;3.73;;;3.40;;
8594;SDS011;4335;48.860;9.198;2022-08-24T01:51:41;3.93;;;3.40;;
8594;SDS011;4335;48.860;9.198;2022-08-24T01:54:11;3.67;;;3.37;;
8594;SDS011;4335;48.860;9.198;2022-08-24T01:56:39;4.73;;;3.57;;
8594;SDS011;4335;48.860;9.198;2022-08-24T01:59:06;3.80;;;3.30;;
8594;SDS011;4335;48.860;9.198;2022-08-24T02:01:34;4.10;;;3.70;;
8594;SDS011;4335;48.860;9.198;2022-08-24T02:04:04;3.60;;;3.30;;
8594;SDS011;4335;48.860;9.198;2022-08-24T02:06:35;3.80;;;3.50;;
8594;SDS011;4335;48.860;9.198;2022-08-24T02:09:03;5.00;;;3.40;;
8594;SDS011;4335;48.860;9.198;2022-08-24T02:11:30;5.67;;;3.70;;
8594;SDS011;4335;48.860;9.198;2022-08-24T02:13:58;3.53;;;3.23;;
8594;SDS011;4335;48.860;9.198;2022-08-24T02:16:30;5.73;;;3.77;;
8594;SDS011;4335;48.860;9.198;2022-08-24T02:18:57;4.30;;;3.80;;
8594;SDS011;4335;48.860;9.198;2022-08-24T02:21:24;4.17;;;3.63;;
8594;SDS011;4335;48.860;9.198;2022-08-24T02:23:50;3.83;;;3.53;;
8594;SDS011;4335;48.860;9.198;2022-08-24T02:26:23;4.40;;;4.00;;
8594;SDS011;4335;48.860;9.198;2022-08-24T02:28:50;4.53;;;4.10;;
8594;SDS011;4335;48.860;9.198;2022-08-24T02:31:17;5.10;;;3.73;;
8594;SDS011;4335;48.860;9.198;2022-08-24T02:33:44;4.63;;;4.23;;
8594;SDS011;4335;48.860;9.198;2022-08-24T02:36:13;4.70;;;3.83;;
8594;SDS011;4335;48.860;9.198;2022-08-24T02:38:40;5.57;;;4.13;;
8594;SDS011;4335;48.860;9.198;2022-08-24T02:41:09;6.50;;;4.67;;
8594;SDS011;4335;48.860;9.198;2022-08-24T02:43:42;4.27;;;3.83;;
8594;SDS011;4335;48.860;9.198;2022-08-24T02:46:16;5.27;;;4.30;;
8594;SDS011;4335;48.860;9.198;2022-08-24T02:48:47;4.83;;;4.37;;
8594;SDS011;4335;48.860;9.198;2022-08-24T02:51:17;5.07;;;4.30;;
8594;SDS011;4335;48.860;9.198;2022-08-24T02:53:46;4.33;;;3.97;;
8594;SDS011;4335;48.860;9.198;2022-08-24T02:56:16;7.00;;;4.33;;
8594;SDS011;4335;48.860;9.198;2022-08-24T02:58:43;4.57;;;3.80;;
8594;SDS011;4335;48.860;9.198;2022-08-24T03:01:13;8.47;;;4.17;;
8594;SDS011;4335;48.860;9.198;2022-08-24T03:03:42;4.77;;;4.30;;
8594;SDS011;4335;48.860;9.198;2022-08-24T03:06:12;6.47;;;4.83;;
8594;SDS011;4335;48.860;9.198;2022-08-24T03:08:45;4.87;;;4.20;;
8594;SDS011;4335;48.860;9.198;2022-08-24T03:11:11;5.63;;;4.47;;
8594;SDS011;4335;48.860;9.198;2022-08-24T03:13:39;5.07;;;4.63;;
8594;SDS011;4335;48.860;9.198;2022-08-24T03:16:06;6.83;;;5.50;;
8594;SDS011;4335;48.860;9.198;2022-08-24T03:18:33;5.30;;;4.80;;
8594;SDS011;4335;48.860;9.198;2022-08-24T03:21:01;9.13;;;6.37;;
8594;SDS011;4335;48.860;9.198;2022-08-24T03:23:31;5.90;;;4.80;;
8594;SDS011;4335;48.860;9.198;2022-08-24T03:26:00;5.13;;;4.63;;
8594;SDS011;4335;48.860;9.198;2022-08-24T03:28:27;5.27;;;4.27;;
8594;SDS011;4335;48.860;9.198;2022-08-24T03:30:54;4.53;;;4.13;;
8594;SDS011;4335;48.860;9.198;2022-08-24T03:33:23;5.13;;;4.40;;
8594;SDS011;4335;48.860;9.198;2022-08-24T03:35:54;4.83;;;3.90;;
8594;SDS011;4335;48.860;9.198;2022-08-24T03:38:21;5.17;;;4.67;;
8594;SDS011;4335;48.860;9.198;2022-08-24T03:40:48;7.53;;;4.50;;
8594;SDS011;4335;48.860;9.198;2022-08-24T03:43:15;5.37;;;4.57;;
8594;SDS011;4335;48.860;9.198;2022-08-24T03:46:05;7.13;;;4.47;;
8594;SDS011;4335;48.860;9.198;2022-08-24T03:48:34;6.23;;;5.53;;
8594;SDS011;4335;48.860;9.198;2022-08-24T03:51:01;8.80;;;5.60;;
8594;SDS011;4335;48.860;9.198;2022-08-24T03:53:29;5.27;;;4.80;;
8594;SDS011;4335;48.860;9.198;2022-08-24T03:55:56;5.40;;;4.73;;
8594;SDS011;4335;48.860;9.198;2022-08-24T03:58:22;9.57;;;5.50;;
8594;SDS011;4335;48.860;9.198;2022-08-24T04:00:49;7.30;;;5.27;;
8594;SDS011;4335;48.860;9.198;2022-08-24T04:03:16;6.67;;;5.30;;
8594;SDS011;4335;48.860;9.198;2022-08-24T04:05:42;6.73;;;6.03;;
8594;SDS011;4335;48.860;9.198;2022-08-24T04:08:15;6.73;;;5.37;;
8594;SDS011;4335;48.860;9.198;2022-08-24T04:10:43;8.40;;;5.87;;
8594;SDS011;4335;48.860;9.198;2022-08-24T04:13:10;7.43;;;5.73;;
8594;SDS011;4335;48.860;9.198;2022-08-24T04:15:38;6.43;;;5.30;;
8594;SDS011;4335;48.860;9.198;2022-08-24T04:18:05;6.77;;;5.63;;
8594;SDS011;4335;48.860;9.198;2022-08-24T04:20:35;6.83;;;5.57;;
8594;SDS011;4335;48.860;9.198;2022-08-24T04:23:03;6.67;;;5.60;;
8594;SDS011;4335;48.860;9.198;2022-08-24T04:25:37;7.37;;;5.90;;
8594;SDS011;4335;48.860;9.198;2022-08-24T04:28:09;8.33;;;6.67;;
8594;SDS011;4335;48.860;9.198;2022-08-24T04:30:38;8.23;;;5.40;;
8594;SDS011;4335;48.860;9.198;2022-08-24T04:33:06;7.03;;;6.33;;
8594;SDS011;4335;48.860;9.198;2022-08-24T04:35:35;9.97;;;5.97;;
8594;SDS011;4335;48.860;9.198;2022-08-24T04:38:06;6.60;;;5.93;;
8594;SDS011;4335;48.860;9.198;2022-08-24T04:40:33;8.57;;;5.83;;
8594;SDS011;4335;48.860;9.198;2022-08-24T04:43:00;9.20;;;7.00;;
8594;SDS011;4335;48.860;9.198;2022-08-24T04:45:38;8.73;;;5.70;;
8594;SDS011;4335;48.860;9.198;2022-08-24T04:48:05;6.70;;;5.93;;
8594;SDS011;4335;48.860;9.198;2022-08-24T04:50:39;6.80;;;5.23;;
8594;SDS011;4335;48.860;9.198;2022-08-24T04:53:10;9.87;;;6.30;;
8594;SDS011;4335;48.860;9.198;2022-08-24T04:55:42;8.50;;;6.33;;
8594;SDS011;4335;48.860;9.198;2022-08-24T04:58:10;11.60;;;6.17;;
8594;SDS011;4335;48.860;9.198;2022-08-24T05:00:38;8.93;;;6.20;;
8594;SDS011;4335;48.860;9.198;2022-08-24T05:03:07;7.90;;;5.20;;
8594;SDS011;4335;48.860;9.198;2022-08-24T05:05:34;6.20;;;5.30;;
8594;SDS011;4335;48.860;9.198;2022-08-24T05:08:05;6.47;;;4.70;;
8594;SDS011;4335;48.860;9.198;2022-08-24T05:10:32;6.60;;;5.37;;
8594;SDS011;4335;48.860;9.198;2022-08-24T05:12:58;5.50;;;5.00;;
8594;SDS011;4335;48.860;9.198;2022-08-24T05:15:25;6.13;;;5.17;;
8594;SDS011;4335;48.860;9.198;2022-08-24T05:17:53;5.57;;;4.80;;
8594;SDS011;4335;48.860;9.198;2022-08-24T05:20:19;5.50;;;5.00;;
8594;SDS011;4335;48.860;9.198;2022-08-24T05:22:46;5.40;;;4.90;;
8594;SDS011;4335;48.860;9.198;2022-08-24T05:25:13;6.20;;;5.17;;
8594;SDS011;4335;48.860;9.198;2022-08-24T05:27:39;7.53;;;5.63;;
8594;SDS011;4335;48.860;9.198;2022-08-24T05:30:06;8.57;;;5.43;;
8594;SDS011;4335;48.860;9.198;2022-08-24T05:32:35;5.80;;;5.20;;
8594;SDS011;4335;48.860;9.198;2022-08-24T05:35:03;5.83;;;5.20;;
8594;SDS011;4335;48.860;9.198;2022-08-24T05:37:36;8.83;;;4.83;;
8594;SDS011;4335;48.860;9.198;2022-08-24T05:40:08;8.50;;;5.10;;
8594;SDS011;4335;48.860;9.198;2022-08-24T05:42:40;5.90;;;4.60;;
8594;SDS011;4335;48.860;9.198;2022-08-24T05:45:06;8.00;;;5.47;;
8594;SDS011;4335;48.860;9.198;2022-08-24T05:47:37;6.20;;;4.70;;
8594;SDS011;4335;48.860;9.198;2022-08-24T05:50:05;6.23;;;5.10;;
8594;SDS011;4335;48.860;9.198;2022-08-24T05:52:33;5.40;;;4.90;;
8594;SDS011;4335;48.860;9.198;2022-08-24T05:55:00;6.07;;;4.90;;
8594;SDS011;4335;48.860;9.198;2022-08-24T05:57:30;6.63;;;5.40;;
8594;SDS011;4335;48.860;9.198;2022-08-24T06:00:04;7.27;;;5.07;;
8594;SDS011;4335;48.860;9.198;2022-08-24T06:05:22;7.73;;;4.83;;
8594;SDS011;4335;48.860;9.198;2022-08-24T06:07:48;5.97;;;4.80;;
8594;SDS011;4335;48.860;9.198;2022-08-24T06:10:15;6.70;;;5.40;;
8594;SDS011;4335;48.860;9.198;2022-08-24T06:12:42;5.00;;;4.50;;
8594;SDS011;4335;48.860;9.198;2022-08-24T06:15:09;5.20;;;4.57;;
8594;SDS011;4335;48.860;9.198;2022-08-24T06:17:35;4.57;;;4.17;;
8594;SDS011;4335;48.860;9.198;2022-08-24T06:20:03;7.63;;;4.03;;
8594;SDS011;4335;48.860;9.198;2022-08-24T06:22:34;6.80;;;4.60;;
8594;SDS011;4335;48.860;9.198;2022-08-24T06:25:01;5.43;;;4.13;;
8594;SDS011;4335;48.860;9.198;2022-08-24T06:27:46;4.23;;;3.83;;
8594;SDS011;4335;48.860;9.198;2022-08-24T06:30:13;6.47;;;3.90;;
8594;SDS011;4335;48.860;9.198;2022-08-24T06:32:43;8.60;;;4.20;;
8594;SDS011;4335;48.860;9.198;2022-08-24T06:35:10;4.20;;;3.80;;
8594;SDS011;4335;48.860;9.198;2022-08-24T06:37:40;7.90;;;4.27;;
8594;SDS011;4335;48.860;9.198;2022-08-24T06:40:08;6.83;;;4.30;;
8594;SDS011;4335;48.860;9.198;2022-08-24T06:42:41;4.78;;;3.53;;
8594;SDS011;4335;48.860;9.198;2022-08-24T06:45:10;5.40;;;3.80;;
8594;SDS011;4335;48.860;9.198;2022-08-24T06:47:37;5.30;;;3.50;;
8594;SDS011;4335;48.860;9.198;2022-08-24T06:50:08;4.85;;;3.70;;
8594;SDS011;4335;48.860;9.198;2022-08-24T06:52:39;4.57;;;3.50;;
8594;SDS011;4335;48.860;9.198;2022-08-24T06:55:11;5.40;;;3.25;;
8594;SDS011;4335;48.860;9.198;2022-08-24T06:57:37;4.00;;;3.55;;
8594;SDS011;4335;48.860;9.198;2022-08-24T07:00:06;8.60;;;3.45;;
8594;SDS011;4335;48.860;9.198;2022-08-24T07:02:34;4.32;;;3.33;;
8594;SDS011;4335;48.860;9.198;2022-08-24T07:05:01;4.03;;;3.63;;
8594;SDS011;4335;48.860;9.198;2022-08-24T07:07:28;4.60;;;3.50;;
8594;SDS011;4335;48.860;9.198;2022-08-24T07:10:02;4.50;;;2.90;;
8594;SDS011;4335;48.860;9.198;2022-08-24T07:12:29;4.35;;;3.30;;
8594;SDS011;4335;48.860;9.198;2022-08-24T07:14:59;3.22;;;2.92;;
8594;SDS011;4335;48.860;9.198;2022-08-24T07:17:26;5.30;;;2.70;;
8594;SDS011;4335;48.860;9.198;2022-08-24T07:20:03;5.80;;;3.83;;
8594;SDS011;4335;48.860;9.198;2022-08-24T07:22:33;6.20;;;3.40;;
8594;SDS011;4335;48.860;9.198;2022-08-24T07:25:00;7.72;;;4.20;;
8594;SDS011;4335;48.860;9.198;2022-08-24T07:27:30;3.83;;;3.47;;
8594;SDS011;4335;48.860;9.198;2022-08-24T07:29:58;6.15;;;2.92;;
8594;SDS011;4335;48.860;9.198;2022-08-24T07:32:31;3.63;;;3.20;;
8594;SDS011;4335;48.860;9.198;2022-08-24T07:34:58;3.53;;;3.03;;
8594;SDS011;4335;48.860;9.198;2022-08-24T07:37:25;3.78;;;3.25;;
8594;SDS011;4335;48.860;9.198;2022-08-24T07:39:51;3.35;;;2.80;;
8594;SDS011;4335;48.860;9.198;2022-08-24T07:42:18;3.15;;;2.47;;
8594;SDS011;4335;48.860;9.198;2022-08-24T07:44:46;4.57;;;2.88;;
8594;SDS011;4335;48.860;9.198;2022-08-24T07:47:16;4.38;;;3.33;;
8594;SDS011;4335;48.860;9.198;2022-08-24T07:49:43;3.15;;;2.40;;
8594;SDS011;4335;48.860;9.198;2022-08-24T07:52:12;4.78;;;2.67;;
8594;SDS011;4335;48.860;9.198;2022-08-24T07:54:39;3.25;;;2.50;;
8594;SDS011;4335;48.860;9.198;2022-08-24T07:57:06;4.85;;;2.58;;
8594;SDS011;4335;48.860;9.198;2022-08-24T07:59:33;3.97;;;2.10;;
8594;SDS011;4335;48.860;9.198;2022-08-24T08:02:01;5.00;;;2.75;;
8594;SDS011;4335;48.860;9.198;2022-08-24T08:04:29;2.30;;;2.10;;
8594;SDS011;4335;48.860;9.198;2022-08-24T08:06:56;3.75;;;2.30;;
8594;SDS011;4335;48.860;9.198;2022-08-24T08:09:25;2.40;;;2.20;;
8594;SDS011;4335;48.860;9.198;2022-08-24T08:11:52;2.65;;;2.03;;
8594;SDS011;4335;48.860;9.198;2022-08-24T08:14:18;3.53;;;2.00;;
8594;SDS011;4335;48.860;9.198;2022-08-24T08:16:48;2.22;;;1.98;;
8594;SDS011;4335;48.860;9.198;2022-08-24T08:19:15;2.97;;;2.25;;
8594;SDS011;4335;48.860;9.198;2022-08-24T08:21:43;3.42;;;1.98;;
8594;SDS011;4335;48.860;9.198;2022-08-24T08:24:28;2.17;;;1.85;;
8594;SDS011;4335;48.860;9.198;2022-08-24T08:26:58;2.58;;;2.08;;
8594;SDS011;4335;48.860;9.198;2022-08-24T08:29:25;3.38;;;1.63;;
8594;SDS011;4335;48.860;9.198;2022-08-24T08:31:52;3.42;;;1.77;;
8594;SDS011;4335;48.860;9.198;2022-08-24T08:34:20;3.35;;;2.50;;
8594;SDS011;4335;48.860;9.198;2022-08-24T08:36:47;2.72;;;2.00;;
8594;SDS011;4335;48.860;9.198;2022-08-24T08:39:19;2.03;;;1.63;;
8594;SDS011;4335;48.860;9.198;2022-08-24T08:44:59;3.53;;;1.80;;
8594;SDS011;4335;48.860;9.198;2022-08-24T08:54:04;5.38;;;1.88;;
8594;SDS011;4335;48.860;9.198;2022-08-24T08:56:51;3.00;;;1.65;;
8594;SDS011;4335;48.860;9.198;2022-08-24T08:59:43;2.20;;;1.60;;
8594;SDS011;4335;48.860;9.198;2022-08-24T09:02:31;1.77;;;1.60;;
8594;SDS011;4335;48.860;9.198;2022-08-24T09:08:26;1.58;;;1.40;;
8594;SDS011;4335;48.860;9.198;2022-08-24T09:11:04;3.85;;;1.80;;
8594;SDS011;4335;48.860;9.198;2022-08-24T09:13:47;3.05;;;1.60;;
8594;SDS011;4335;48.860;9.198;2022-08-24T09:16:38;3.35;;;1.80;;
8594;SDS011;4335;48.860;9.198;2022-08-24T09:19:32;2.13;;;1.60;;
8594;SDS011;4335;48.860;9.198;2022-08-24T09:22:15;1.60;;;1.50;;
8594;SDS011;4335;48.860;9.198;2022-08-24T09:24:54;5.63;;;1.90;;
8594;SDS011;4335;48.860;9.198;2022-08-24T09:27:33;3.58;;;1.65;;
8594;SDS011;4335;48.860;9.198;2022-08-24T09:30:10;2.25;;;1.40;;
8594;SDS011;4335;48.860;9.198;2022-08-24T09:35:25;1.55;;;1.40;;
8594;SDS011;4335;48.860;9.198;2022-08-24T09:37:59;1.58;;;1.48;;
8594;SDS011;4335;48.860;9.198;2022-08-24T09:40:34;2.13;;;1.45;;
8594;SDS011;4335;48.860;9.198;2022-08-24T09:46:27;2.90;;;1.83;;
8594;SDS011;4335;48.860;9.198;2022-08-24T09:52:31;1.63;;;1.23;;
8594;SDS011;4335;48.860;9.198;2022-08-24T09:58:30;3.92;;;1.60;;
8594;SDS011;4335;48.860;9.198;2022-08-24T10:01:16;1.80;;;1.55;;
8594;SDS011;4335;48.860;9.198;2022-08-24T10:03:58;1.80;;;1.70;;
8594;SDS011;4335;48.860;9.198;2022-08-24T10:06:37;3.53;;;1.40;;
8594;SDS011;4335;48.860;9.198;2022-08-24T10:09:24;2.63;;;1.52;;
8594;SDS011;4335;48.860;9.198;2022-08-24T10:12:12;2.22;;;1.27;;
8594;SDS011;4335;48.860;9.198;2022-08-24T10:14:49;2.20;;;1.45;;
8594;SDS011;4335;48.860;9.198;2022-08-24T10:17:25;1.60;;;1.40;;
8594;SDS011;4335;48.860;9.198;2022-08-24T10:20:04;2.45;;;1.60;;
8594;SDS011;4335;48.860;9.198;2022-08-24T10:22:44;1.98;;;1.27;;
8594;SDS011;4335;48.860;9.198;2022-08-24T10:25:34;1.75;;;1.38;;
8594;SDS011;4335;48.860;9.198;2022-08-24T10:28:17;1.85;;;1.42;;
8594;SDS011;4335;48.860;9.198;2022-08-24T10:31:00;1.55;;;1.33;;
8594;SDS011;4335;48.860;9.198;2022-08-24T10:33:35;1.80;;;1.27;;
8594;SDS011;4335;48.860;9.198;2022-08-24T10:36:23;1.50;;;1.40;;
8594;SDS011;4335;48.860;9.198;2022-08-24T10:42:25;1.70;;;1.60;;
8594;SDS011;4335;48.860;9.198;2022-08-24T10:45:48;1.55;;;1.45;;
8594;SDS011;4335;48.860;9.198;2022-08-24T10:52:10;1.60;;;1.50;;
8594;SDS011;4335;48.860;9.198;2022-08-24T10:55:14;2.05;;;1.60;;
8594;SDS011;4335;48.860;9.198;2022-08-24T10:57:46;2.55;;;2.05;;
8594;SDS011;4335;48.860;9.198;2022-08-24T11:00:37;3.17;;;1.60;;
8594;SDS011;4335;48.860;9.198;2022-08-24T11:03:09;3.83;;;1.80;;
8594;SDS011;4335;48.860;9.198;2022-08-24T11:05:40;3.15;;;1.80;;
8594;SDS011;4335;48.860;9.198;2022-08-24T11:08:11;3.78;;;1.63;;
8594;SDS011;4335;48.860;9.198;2022-08-24T11:10:45;2.10;;;1.77;;
8594;SDS011;4335;48.860;9.198;2022-08-24T11:13:28;3.63;;;1.70;;
8594;SDS011;4335;48.860;9.198;2022-08-24T11:15:59;2.53;;;1.85;;
8594;SDS011;4335;48.860;9.198;2022-08-24T11:18:44;3.35;;;2.03;;
8594;SDS011;4335;48.860;9.198;2022-08-24T11:21:30;1.60;;;1.50;;
8594;SDS011;4335;48.860;9.198;2022-08-24T11:24:03;1.70;;;1.60;;
8594;SDS011;4335;48.860;9.198;2022-08-24T11:26:34;1.92;;;1.48;;
8594;SDS011;4335;48.860;9.198;2022-08-24T11:29:19;3.03;;;1.73;;
8594;SDS011;4335;48.860;9.198;2022-08-24T11:31:46;3.03;;;1.58;;
8594;SDS011;4335;48.860;9.198;2022-08-24T11:34:29;4.47;;;1.75;;
8594;SDS011;4335;48.860;9.198;2022-08-24T11:37:00;3.38;;;1.83;;
8594;SDS011;4335;48.860;9.198;2022-08-24T11:39:34;1.80;;;1.70;;
8594;SDS011;4335;48.860;9.198;2022-08-24T11:42:08;1.98;;;1.77;;
8594;SDS011;4335;48.860;9.198;2022-08-24T11:44:41;2.00;;;1.60;;
8594;SDS011;4335;48.860;9.198;2022-08-24T11:47:24;1.70;;;1.60;;
8594;SDS011;4335;48.860;9.198;2022-08-24T11:50:09;1.70;;;1.60;;
8594;SDS011;4335;48.860;9.198;2022-08-24T11:52:54;1.77;;;1.67;;
8594;SDS011;4335;48.860;9.198;2022-08-24T11:55:37;1.75;;;1.65;;
8594;SDS011;4335;48.860;9.198;2022-08-24T11:58:22;2.08;;;1.90;;
8594;SDS011;4335;48.860;9.198;2022-08-24T12:01:03;2.55;;;1.75;;
8594;SDS011;4335;48.860;9.198;2022-08-24T12:03:38;2.10;;;1.80;;
8594;SDS011;4335;48.860;9.198;2022-08-24T12:06:28;1.98;;;1.77;;
8594;SDS011;4335;48.860;9.198;2022-08-24T12:09:08;2.17;;;1.80;;
8594;SDS011;4335;48.860;9.198;2022-08-24T12:11:46;2.20;;;1.70;;
8594;SDS011;4335;48.860;9.198;2022-08-24T12:14:17;2.40;;;1.90;;
8594;SDS011;4335;48.860;9.198;2022-08-24T12:16:53;2.35;;;1.50;;
8594;SDS011;4335;48.860;9.198;2022-08-24T12:19:25;1.60;;;1.50;;
8594;SDS011;4335;48.860;9.198;2022-08-24T12:21:55;3.45;;;1.80;;
8594;SDS011;4335;48.860;9.198;2022-08-24T12:24:28;1.92;;;1.83;;
8594;SDS011;4335;48.860;9.198;2022-08-24T12:27:00;1.63;;;1.52;;
8594;SDS011;4335;48.860;9.198;2022-08-24T12:29:30;2.00;;;1.73;;
8594;SDS011;4335;48.860;9.198;2022-08-24T12:32:02;2.33;;;1.73;;
8594;SDS011;4335;48.860;9.198;2022-08-24T12:34:37;2.13;;;1.52;;
8594;SDS011;4335;48.860;9.198;2022-08-24T12:37:25;2.22;;;1.45;;
8594;SDS011;4335;48.860;9.198;2022-08-24T12:39:58;1.73;;;1.63;;
8594;SDS011;4335;48.860;9.198;2022-08-24T12:42:35;2.20;;;2.00;;
8594;SDS011;4335;48.860;9.198;2022-08-24T12:45:12;1.77;;;1.50;;
8594;SDS011;4335;48.860;9.198;2022-08-24T12:47:43;2.42;;;1.33;;
8594;SDS011;4335;48.860;9.198;2022-08-24T12:50:15;2.13;;;1.80;;
8594;SDS011;4335;48.860;9.198;2022-08-24T12:53:11;1.98;;;1.83;;
8594;SDS011;4335;48.860;9.198;2022-08-24T12:56:12;2.20;;;2.00;;
8594;SDS011;4335;48.860;9.198;2022-08-24T12:59:12;2.03;;;1.73;;
8594;SDS011;4335;48.860;9.198;2022-08-24T13:01:45;2.83;;;1.75;;
8594;SDS011;4335;48.860;9.198;2022-08-24T13:04:32;1.98;;;1.70;;
8594;SDS011;4335;48.860;9.198;2022-08-24T13:07:04;2.15;;;1.60;;
8594;SDS011;4335;48.860;9.198;2022-08-24T13:09:38;1.80;;;1.70;;
8594;SDS011;4335;48.860;9.198;2022-08-24T13:18:44;2.30;;;1.92;;
8594;SDS011;4335;48.860;9.198;2022-08-24T13:21:34;2.45;;;2.25;;
8594;SDS011;4335;48.860;9.198;2022-08-24T13:30:54;1.90;;;1.70;;
8594;SDS011;4335;48.860;9.198;2022-08-24T13:33:30;3.13;;;1.98;;
8594;SDS011;4335;48.860;9.198;2022-08-24T13:36:03;1.70;;;1.60;;
8594;SDS011;4335;48.860;9.198;2022-08-24T13:44:14;3.60;;;1.60;;
8594;SDS011;4335;48.860;9.198;2022-08-24T13:47:08;1.75;;;1.65;;
8594;SDS011;4335;48.860;9.198;2022-08-24T13:49:49;2.03;;;1.90;;
8594;SDS011;4335;48.860;9.198;2022-08-24T13:52:29;4.10;;;2.00;;
8594;SDS011;4335;48.860;9.198;2022-08-24T13:55:30;1.90;;;1.80;;
8594;SDS011;4335;48.860;9.198;2022-08-24T13:58:09;2.05;;;1.88;;
8594;SDS011;4335;48.860;9.198;2022-08-24T14:00:44;3.20;;;1.52;;
8594;SDS011;4335;48.860;9.198;2022-08-24T14:03:22;2.72;;;2.03;;
8594;SDS011;4335;48.860;9.198;2022-08-24T14:06:17;2.20;;;2.00;;
8594;SDS011;4335;48.860;9.198;2022-08-24T14:08:54;2.08;;;1.80;;
8594;SDS011;4335;48.860;9.198;2022-08-24T14:11:41;1.88;;;1.73;;
8594;SDS011;4335;48.860;9.198;2022-08-24T14:14:20;2.72;;;1.90;;
8594;SDS011;4335;48.860;9.198;2022-08-24T14:17:03;2.28;;;2.10;;
8594;SDS011;4335;48.860;9.198;2022-08-24T14:19:57;3.00;;;1.83;;
8594;SDS011;4335;48.860;9.198;2022-08-24T14:22:31;3.10;;;2.20;;
8594;SDS011;4335;48.860;9.198;2022-08-24T14:25:12;2.22;;;1.98;;
8594;SDS011;4335;48.860;9.198;2022-08-24T14:27:44;3.30;;;1.83;;
8594;SDS011;4335;48.860;9.198;2022-08-24T14:33:07;1.80;;;1.70;;
8594;SDS011;4335;48.860;9.198;2022-08-24T14:35:43;2.80;;;1.70;;
8594;SDS011;4335;48.860;9.198;2022-08-24T14:41:20;2.17;;;1.98;;
8594;SDS011;4335;48.860;9.198;2022-08-24T14:44:03;1.80;;;1.70;;
8594;SDS011;4335;48.860;9.198;2022-08-24T14:46:40;3.72;;;2.03;;
8594;SDS011;4335;48.860;9.198;2022-08-24T14:49:15;2.60;;;1.92;;
8594;SDS011;4335;48.860;9.198;2022-08-24T14:54:49;2.20;;;2.03;;
8594;SDS011;4335;48.860;9.198;2022-08-24T14:57:34;2.05;;;1.85;;
8594;SDS011;4335;48.860;9.198;2022-08-24T15:00:16;2.30;;;2.10;;
8594;SDS011;4335;48.860;9.198;2022-08-24T15:05:40;4.70;;;2.05;;
8594;SDS011;4335;48.860;9.198;2022-08-24T15:08:11;2.35;;;2.00;;
8594;SDS011;4335;48.860;9.198;2022-08-24T15:10:54;3.17;;;2.08;;
8594;SDS011;4335;48.860;9.198;2022-08-24T15:13:28;2.30;;;1.77;;
8594;SDS011;4335;48.860;9.198;2022-08-24T15:16:02;2.25;;;2.10;;
8594;SDS011;4335;48.860;9.198;2022-08-24T15:18:35;2.38;;;2.17;;
8594;SDS011;4335;48.860;9.198;2022-08-24T15:21:10;2.50;;;2.03;;
8594;SDS011;4335;48.860;9.198;2022-08-24T15:23:53;2.20;;;2.00;;
8594;SDS011;4335;48.860;9.198;2022-08-24T15:26:30;2.47;;;2.08;;
8594;SDS011;4335;48.860;9.198;2022-08-24T15:29:08;1.65;;;1.55;;
8594;SDS011;4335;48.860;9.198;2022-08-24T15:31:39;1.85;;;1.70;;
8594;SDS011;4335;48.860;9.198;2022-08-24T15:34:06;3.03;;;2.13;;
8594;SDS011;4335;48.860;9.198;2022-08-24T15:36:35;2.35;;;2.03;;
8594;SDS011;4335;48.860;9.198;2022-08-24T15:39:03;2.22;;;2.00;;
8594;SDS011;4335;48.860;9.198;2022-08-24T15:41:32;2.03;;;1.85;;
8594;SDS011;4335;48.860;9.198;2022-08-24T15:44:03;2.20;;;1.90;;
8594;SDS011;4335;48.860;9.198;2022-08-24T15:46:37;1.90;;;1.80;;
8594;SDS011;4335;48.860;9.198;2022-08-24T15:49:12;2.72;;;1.90;;
8594;SDS011;4335;48.860;9.198;2022-08-24T15:51:43;2.17;;;1.98;;
8594;SDS011;4335;48.860;9.198;2022-08-24T15:54:14;2.42;;;2.10;;
8594;SDS011;4335;48.860;9.198;2022-08-24T15:56:56;3.55;;;2.30;;
8594;SDS011;4335;48.860;9.198;2022-08-24T15:59:26;2.40;;;2.20;;
8594;SDS011;4335;48.860;9.198;2022-08-24T16:01:55;2.20;;;2.00;;
8594;SDS011;4335;48.860;9.198;2022-08-24T16:04:43;3.00;;;2.13;;
8594;SDS011;4335;48.860;9.198;2022-08-24T16:07:12;2.22;;;1.70;;
8594;SDS011;4335;48.860;9.198;2022-08-24T16:09:43;2.00;;;1.80;;
8594;SDS011;4335;48.860;9.198;2022-08-24T16:12:11;2.58;;;2.05;;
8594;SDS011;4335;48.860;9.198;2022-08-24T16:14:41;2.63;;;2.05;;
8594;SDS011;4335;48.860;9.198;2022-08-24T16:17:18;3.55;;;2.10;;
8594;SDS011;4335;48.860;9.198;2022-08-24T16:19:58;2.70;;;1.80;;
8594;SDS011;4335;48.860;9.198;2022-08-24T16:22:29;1.73;;;1.63;;
8594;SDS011;4335;48.860;9.198;2022-08-24T16:25:08;2.17;;;1.80;;
8594;SDS011;4335;48.860;9.198;2022-08-24T16:27:53;2.58;;;1.63;;
8594;SDS011;4335;48.860;9.198;2022-08-24T16:30:23;1.92;;;1.60;;
8594;SDS011;4335;48.860;9.198;2022-08-24T16:32:53;1.90;;;1.70;;
8594;SDS011;4335;48.860;9.198;2022-08-24T16:35:24;1.90;;;1.80;;
8594;SDS011;4335;48.860;9.198;2022-08-24T16:37:50;1.98;;;1.80;;
8594;SDS011;4335;48.860;9.198;2022-08-24T16:40:21;1.92;;;1.83;;
8594;SDS011;4335;48.860;9.198;2022-08-24T16:42:48;2.20;;;1.70;;
8594;SDS011;4335;48.860;9.198;2022-08-24T16:45:22;2.97;;;1.73;;
8594;SDS011;4335;48.860;9.198;2022-08-24T16:47:52;2.05;;;1.88;;
8594;SDS011;4335;48.860;9.198;2022-08-24T16:50:18;2.53;;;1.92;;
8594;SDS011;4335;48.860;9.198;2022-08-24T16:52:49;1.80;;;1.70;;
8594;SDS011;4335;48.860;9.198;2022-08-24T16:55:15;2.08;;;1.88;;
8594;SDS011;4335;48.860;9.198;2022-08-24T16:57:42;2.47;;;1.80;;